createdAt,value
2022-08-21T02:28:27.613Z,6.32
2022-08-21T02:32:20.320Z,6.15
2022-08-21T02:36:14.452Z,5.85
2022-08-21T02:40:07.530Z,5.82
2022-08-21T02:44:00.206Z,5.22
2022-08-21T02:47:55.169Z,4.70
2022-08-21T02:51:49.008Z,5.45
2022-08-21T05:26:48.802Z,4.40
2022-08-21T05:31:07.099Z,4.75
2022-08-21T05:39:19.438Z,4.53
2022-08-21T06:04:14.623Z,4.95
2022-08-21T06:08:07.030Z,4.70
2022-08-21T06:11:59.545Z,4.88
2022-08-21T06:16:08.911Z,5.03
2022-08-21T06:20:01.460Z,5.22
2022-08-21T06:23:53.960Z,5.13
2022-08-21T06:27:47.050Z,5.25
2022-08-21T06:31:40.430Z,4.97
2022-08-21T06:35:34.158Z,5.00
2022-08-21T06:39:32.291Z,5.32
2022-08-21T06:43:39.192Z,5.07
2022-08-21T06:47:32.418Z,5.00
2022-08-21T06:51:26.647Z,4.93
2022-08-21T06:55:22.363Z,5.20
2022-08-21T06:59:16.393Z,5.28
2022-08-21T07:03:40.401Z,4.78
2022-08-21T07:07:32.830Z,4.88
2022-08-21T07:11:25.951Z,4.95
2022-08-21T07:15:18.630Z,5.38
2022-08-21T07:19:11.195Z,4.60
2022-08-21T07:23:07.644Z,4.82
2022-08-21T07:27:00.175Z,5.18
2022-08-21T07:30:55.355Z,5.03
2022-08-21T07:34:47.993Z,5.03
2022-08-21T07:38:40.695Z,4.68
2022-08-21T07:42:33.356Z,4.95
2022-08-21T07:46:26.883Z,4.93
2022-08-21T07:50:20.430Z,5.05
2022-08-21T07:54:17.060Z,4.97
2022-08-21T07:58:09.794Z,5.57
2022-08-21T08:02:02.297Z,5.28
2022-08-21T08:05:58.090Z,5.00
2022-08-21T08:09:50.542Z,4.70
2022-08-21T08:13:45.771Z,5.00
2022-08-21T08:17:39.733Z,4.45
2022-08-21T08:21:33.692Z,4.40
2022-08-21T08:25:27.990Z,4.78
2022-08-21T08:29:29.075Z,4.47
2022-08-21T08:33:23.469Z,4.40
2022-08-21T08:37:16.495Z,4.57
2022-08-21T08:41:17.402Z,4.28
2022-08-21T08:45:17.520Z,4.55
2022-08-21T08:49:32.161Z,3.88
2022-08-21T08:53:32.271Z,4.60
2022-08-21T08:57:25.833Z,3.95
2022-08-21T09:01:20.986Z,3.60
2022-08-21T09:05:27.057Z,3.75
2022-08-21T09:09:49.536Z,3.95
2022-08-21T09:13:56.149Z,3.72
2022-08-21T09:18:04.632Z,3.60
2022-08-21T09:22:09.896Z,3.65
2022-08-21T09:26:13.045Z,3.47
2022-08-21T09:30:08.142Z,3.63
2022-08-21T09:34:14.327Z,3.80
2022-08-21T09:38:08.944Z,3.40
2022-08-21T09:42:08.415Z,3.53
2022-08-21T09:46:06.212Z,3.95
2022-08-21T09:50:09.459Z,3.67
2022-08-21T09:54:16.657Z,3.42
2022-08-21T09:58:09.153Z,3.85
2022-08-21T10:02:20.676Z,4.05
2022-08-21T10:06:29.126Z,3.83
2022-08-21T10:10:31.018Z,4.18
2022-08-21T10:15:08.675Z,3.78
2022-08-21T10:19:07.490Z,3.67
2022-08-21T10:23:22.002Z,3.88
2022-08-21T10:27:32.680Z,3.67
2022-08-21T10:31:28.230Z,3.90
2022-08-21T10:35:31.826Z,3.92
2022-08-21T10:39:44.952Z,3.60
2022-08-21T10:43:43.360Z,3.50
2022-08-21T10:47:43.255Z,3.30
2022-08-21T10:51:46.200Z,3.38
2022-08-21T10:56:03.588Z,3.28
2022-08-21T11:04:13.999Z,3.10
2022-08-21T11:08:30.407Z,3.22
2022-08-21T11:12:37.456Z,2.97
2022-08-21T11:20:53.237Z,3.05
2022-08-21T11:34:07.803Z,3.10
2022-08-21T11:38:28.110Z,3.55
2022-08-21T11:42:30.108Z,2.83
2022-08-21T11:46:47.945Z,2.53
2022-08-21T11:50:49.820Z,2.80
2022-08-21T11:59:21.307Z,2.20
2022-08-21T12:03:34.069Z,2.40
2022-08-21T12:07:36.606Z,2.47
2022-08-21T12:11:31.102Z,2.22
2022-08-21T12:15:23.787Z,2.17
2022-08-21T12:19:22.481Z,2.20
2022-08-21T12:23:26.604Z,2.58
2022-08-21T12:27:27.216Z,2.55
2022-08-21T12:31:26.637Z,2.60
2022-08-21T12:35:25.364Z,2.47
2022-08-21T12:39:27.654Z,2.28
2022-08-21T12:43:29.960Z,2.25
2022-08-21T12:47:34.695Z,2.10
2022-08-21T12:51:32.442Z,2.50
2022-08-21T12:55:33.744Z,2.03
2022-08-21T12:59:26.413Z,2.15
2022-08-21T13:03:19.090Z,1.85
2022-08-21T13:07:16.177Z,2.10
2022-08-21T13:11:15.180Z,1.80
2022-08-21T13:15:09.429Z,2.20
2022-08-21T13:19:07.229Z,1.95
2022-08-21T13:23:01.803Z,2.13
2022-08-21T13:26:55.371Z,1.55
2022-08-21T13:30:56.798Z,2.03
2022-08-21T13:34:53.826Z,1.60
2022-08-21T13:38:46.820Z,1.77
2022-08-21T13:42:42.962Z,1.77
2022-08-21T13:46:37.486Z,1.67
2022-08-21T13:50:31.301Z,2.13
2022-08-21T13:54:35.826Z,1.73
2022-08-21T13:58:34.098Z,1.52
2022-08-21T14:02:26.539Z,1.48
2022-08-21T14:06:25.032Z,1.60
2022-08-21T14:10:21.640Z,1.60
2022-08-21T14:14:31.243Z,1.42
2022-08-21T14:18:26.526Z,1.63
2022-08-21T14:22:37.367Z,1.70
2022-08-21T14:26:29.886Z,1.60
2022-08-21T14:30:28.251Z,1.50
2022-08-21T14:34:23.172Z,1.45
2022-08-21T14:38:17.896Z,1.70
2022-08-21T14:42:10.311Z,1.48
2022-08-21T14:46:02.810Z,1.70
2022-08-21T14:49:55.669Z,1.80
2022-08-21T14:53:49.061Z,1.63
2022-08-21T14:57:46.611Z,1.60
2022-08-21T15:01:40.268Z,1.80
2022-08-21T15:05:33.971Z,2.08
2022-08-21T15:09:27.130Z,3.53
2022-08-21T15:13:20.246Z,3.00
2022-08-21T15:17:13.361Z,3.22
2022-08-21T15:21:06.330Z,3.97
2022-08-21T15:24:58.674Z,3.63
2022-08-21T15:28:51.483Z,3.63
2022-08-21T15:32:44.175Z,4.50
2022-08-21T15:36:36.653Z,3.80
2022-08-21T15:40:29.493Z,3.80
2022-08-21T15:44:22.201Z,3.70
2022-08-21T15:48:14.634Z,4.35
2022-08-21T15:52:07.122Z,4.07
2022-08-21T15:56:01.842Z,3.70
2022-08-21T15:59:57.809Z,4.00
2022-08-21T16:03:53.212Z,4.00
2022-08-21T16:07:47.209Z,3.42
2022-08-21T16:11:40.258Z,3.85
2022-08-21T16:15:33.472Z,3.28
2022-08-21T16:19:29.295Z,3.47
2022-08-21T16:23:21.973Z,3.53
2022-08-21T16:27:14.570Z,3.78
2022-08-21T16:31:08.913Z,3.78
2022-08-21T16:35:04.002Z,4.18
2022-08-21T16:38:58.471Z,4.00
2022-08-21T16:42:51.191Z,4.25
2022-08-21T16:46:43.657Z,4.63
2022-08-21T16:50:37.870Z,4.50
2022-08-21T16:54:31.129Z,3.92
2022-08-21T16:58:29.663Z,4.05
2022-08-21T17:02:33.462Z,4.07
2022-08-21T17:06:28.047Z,4.43
2022-08-21T17:10:22.018Z,4.25
2022-08-21T17:14:21.489Z,3.65
2022-08-21T17:18:18.359Z,3.70
2022-08-21T17:26:03.437Z,3.10
2022-08-21T17:29:58.091Z,2.95
2022-08-21T17:33:53.634Z,2.97
2022-08-21T17:37:46.264Z,2.45
2022-08-21T17:41:41.195Z,2.50
2022-08-21T17:45:37.438Z,2.30
2022-08-21T17:49:29.913Z,2.35
2022-08-21T17:53:22.581Z,2.30
2022-08-21T17:57:22.809Z,2.67
2022-08-21T18:01:16.208Z,2.50
2022-08-21T18:05:11.901Z,2.60
2022-08-21T18:09:05.401Z,2.40
2022-08-21T18:12:58.974Z,2.30
2022-08-21T18:16:51.687Z,2.40
2022-08-21T18:20:44.551Z,2.47
2022-08-21T18:24:37.161Z,2.38
2022-08-21T18:28:30.084Z,2.25
2022-08-21T18:32:31.860Z,2.47
2022-08-21T18:36:44.457Z,2.55
2022-08-21T18:40:57.193Z,2.38
2022-08-21T18:45:12.499Z,2.60
2022-08-21T18:49:25.522Z,2.70
2022-08-21T18:53:27.460Z,2.40
2022-08-21T18:57:20.975Z,2.30
2022-08-21T19:01:14.375Z,2.75
2022-08-21T19:05:09.850Z,2.30
2022-08-21T19:09:06.012Z,2.08
2022-08-21T19:13:00.593Z,2.20
2022-08-21T19:16:53.344Z,2.10
2022-08-21T19:20:47.429Z,1.70
2022-08-21T19:24:41.032Z,2.10
2022-08-21T19:28:50.292Z,1.88
2022-08-21T19:32:46.948Z,1.80
2022-08-21T19:36:39.874Z,1.70
2022-08-21T19:40:35.028Z,1.90
2022-08-21T19:44:31.455Z,2.00
2022-08-21T19:48:32.063Z,1.75
2022-08-21T20:10:26.713Z,2.10
2022-08-21T20:14:24.098Z,2.20
2022-08-21T20:18:18.098Z,2.30
2022-08-21T20:22:13.217Z,1.90
2022-08-21T20:26:07.192Z,1.77
2022-08-21T20:30:01.057Z,1.85
2022-08-21T20:33:54.569Z,2.03
2022-08-21T20:37:58.530Z,1.90
2022-08-21T20:41:54.310Z,1.95
2022-08-21T20:45:51.698Z,1.90
2022-08-21T20:49:54.040Z,1.90
2022-08-21T20:54:15.395Z,1.55
2022-08-21T20:58:16.554Z,1.63
2022-08-21T21:02:17.021Z,1.77
2022-08-21T21:06:25.833Z,1.55
2022-08-21T21:10:29.590Z,1.73
2022-08-21T21:14:48.311Z,1.48
2022-08-21T21:18:45.458Z,1.45
2022-08-21T21:22:48.755Z,1.63
2022-08-21T21:27:11.567Z,1.67
2022-08-21T21:31:05.762Z,1.55
2022-08-21T21:39:27.432Z,1.33
2022-08-21T21:43:52.881Z,1.50
2022-08-21T21:47:57.099Z,1.33
2022-08-21T21:52:10.979Z,1.48
2022-08-21T21:56:29.658Z,1.40
2022-08-21T22:46:52.513Z,1.58
2022-08-21T22:50:56.153Z,1.50
2022-08-21T22:54:51.517Z,1.60
